Anholt Island, Denmark

1:37 AM CEST on October 26, 2014 (GMT +0200)
Aarhus | Change Station
CLOSE
Current Station
Airport
Location: Tirstrup,
Elevation: 75 ft
Nearby Weather Stations

Elev 75 ft 56.31 °N, 10.63 °E | Updated 17 minutes ago

Clear
Clear
50 °F
Feels Like 50 °F
N
6
Wind Variable Wind from SSW

Today
High -- | Low -- °F
--% Chance of Precip.
Yesterday
High -- | Low -- °F
Precip. -- in
7:09 AM 4:44 PM
Waxing Crescent, 5% visible
Pressure 30.04 in
Visibility 6.2 miles
Clouds
Dew Point 46 °F
Humidity 87%
Rainfall 0.00 in
Snow Depth Not available.
UV Not available.
Pollen Not available.
Air Quality Not available.
Flu Activity Not available.
METAR EKAH 252320Z AUTO 21005KT 160V260 9999NDV NCD 10/08 Q1017

More Conditions Fewer Conditions

Pressure 30.04 in
Visibility 6.2 miles
Clouds
Dew Point 46 °F
Humidity 87%
Rainfall 0.00 in
Snow Depth Not available.
UV Not available.
Pollen Not available.
Air Quality Not available.
Flu Activity Not available.
METAR EKAH 252320Z AUTO 21005KT 160V260 9999NDV NCD 10/08 Q1017

More Conditions Fewer Conditions

10-Day Weather Forecast

Almanac

Astronomy

Oct. 26, 2014 Rise Set
Actual Time 7:09 AM CET 4:44 PM CET
Civil Twilight 6:30 AM CET 5:24 PM CET
Nautical Twilight 5:45 AM CET 6:08 PM CET
Astronomical Twilight 5:01 AM CET 6:52 PM CET
Moon 10:51 AM CET (10/26) 7:20 PM CET (10/26)
Length of Visible Light 10h 54m
Length of Day
9h 35m
Tomorrow will be 4m 32s shorter.
Waxing Crescent, 5% of the Moon is Illuminated
Oct 25
Waxing Crescent
Oct 30
First Quarter
Nov 6
Full
Nov 14
Last Quarter
Nov 22
New

Yesterday's Extremes

Country Highs Country Lows

Community

WunderPhotos

Upload Photos

1,765,034 photos uploaded!

Nearby

Snow Depth

Not available.

Earthquake Activity

City Distance Mag. Time & Date
No recent earthquake activity has been reported nearby.
Minimum magnitude displayed is 2.5.

Coastal Water Temperatures

Place Temperature
No Stations Reporting

Nearby Weather Stations